sensor_id;sensor_type;location;lat;lon;timestamp;pressure;altitude;pressure_sealevel;temperature;humidity
5296;BME280;2670;42.720;23.336;2023-03-03T00:01:33;-22559.44;;;4.05;100.00
5296;BME280;2670;42.720;23.336;2023-03-03T00:04:01;-22561.22;;;4.11;100.00
5296;BME280;2670;42.720;23.336;2023-03-03T00:06:28;-22559.75;;;4.06;100.00
5296;BME280;2670;42.720;23.336;2023-03-03T00:08:55;-22560.47;;;4.08;100.00
5296;BME280;2670;42.720;23.336;2023-03-03T00:11:22;-22559.75;;;4.06;100.00
5296;BME280;2670;42.720;23.336;2023-03-03T00:13:50;-22562.72;;;4.16;100.00
5296;BME280;2670;42.720;23.336;2023-03-03T00:16:24;-22563.75;;;4.19;100.00
5296;BME280;2670;42.720;23.336;2023-03-03T00:19:28;-22562.72;;;4.16;100.00
5296;BME280;2670;42.720;23.336;2023-03-03T00:21:56;-22561.97;;;4.13;100.00
5296;BME280;2670;42.720;23.336;2023-03-03T00:24:24;-22563.63;;;4.19;100.00
5296;BME280;2670;42.720;23.336;2023-03-03T00:27:00;-22566.91;;;4.30;100.00
5296;BME280;2670;42.720;23.336;2023-03-03T00:29:30;-22567.50;;;4.32;100.00
5296;BME280;2670;42.720;23.336;2023-03-03T00:32:17;-22567.63;;;4.33;100.00
5296;BME280;2670;42.720;23.336;2023-03-03T00:34:47;-22566.44;;;4.29;100.00
5296;BME280;2670;42.720;23.336;2023-03-03T00:37:31;-22564.81;;;4.23;100.00
5296;BME280;2670;42.720;23.336;2023-03-03T00:40:10;-22562.88;;;4.16;100.00
5296;BME280;2670;42.720;23.336;2023-03-03T00:42:39;-22560.94;;;4.10;100.00
5296;BME280;2670;42.720;23.336;2023-03-03T00:48:26;-22562.41;;;4.15;100.00
5296;BME280;2670;42.720;23.336;2023-03-03T00:50:55;-22560.47;;;4.08;100.00
5296;BME280;2670;42.720;23.336;2023-03-03T00:53:23;-22561.09;;;4.10;100.00
5296;BME280;2670;42.720;23.336;2023-03-03T00:55:51;-22561.97;;;4.13;100.00
5296;BME280;2670;42.720;23.336;2023-03-03T00:58:19;-22561.69;;;4.12;100.00
5296;BME280;2670;42.720;23.336;2023-03-03T01:00:47;-22563.47;;;4.18;100.00
5296;BME280;2670;42.720;23.336;2023-03-03T01:03:16;-22562.28;;;4.14;100.00
5296;BME280;2670;42.720;23.336;2023-03-03T01:05:43;-22561.22;;;4.11;100.00
5296;BME280;2670;42.720;23.336;2023-03-03T01:08:12;-22563.91;;;4.20;100.00
5296;BME280;2670;42.720;23.336;2023-03-03T01:10:41;-22564.50;;;4.22;100.00
5296;BME280;2670;42.720;23.336;2023-03-03T01:13:10;-22562.28;;;4.14;100.00
5296;BME280;2670;42.720;23.336;2023-03-03T01:15:37;-22564.81;;;4.23;100.00
5296;BME280;2670;42.720;23.336;2023-03-03T01:18:05;-22564.81;;;4.23;100.00
5296;BME280;2670;42.720;23.336;2023-03-03T01:20:32;-22566.59;;;4.29;100.00
5296;BME280;2670;42.720;23.336;2023-03-03T01:22:58;-22564.22;;;4.21;100.00
5296;BME280;2670;42.720;23.336;2023-03-03T01:25:27;-22562.72;;;4.16;100.00
5296;BME280;2670;42.720;23.336;2023-03-03T01:27:54;-22565.09;;;4.24;100.00
5296;BME280;2670;42.720;23.336;2023-03-03T01:30:21;-22565.69;;;4.26;100.00
5296;BME280;2670;42.720;23.336;2023-03-03T01:32:48;-22568.09;;;4.34;100.00
5296;BME280;2670;42.720;23.336;2023-03-03T01:35:15;-22567.78;;;4.33;100.00
5296;BME280;2670;42.720;23.336;2023-03-03T01:37:42;-22567.50;;;4.32;100.00
5296;BME280;2670;42.720;23.336;2023-03-03T01:40:13;-22565.09;;;4.24;100.00
5296;BME280;2670;42.720;23.336;2023-03-03T01:42:42;-22565.41;;;4.25;100.00
5296;BME280;2670;42.720;23.336;2023-03-03T01:45:18;-22567.34;;;4.32;100.00
5296;BME280;2670;42.720;23.336;2023-03-03T01:47:48;-22566.31;;;4.28;100.00
5296;BME280;2670;42.720;23.336;2023-03-03T01:50:24;-22566.59;;;4.29;100.00
5296;BME280;2670;42.720;23.336;2023-03-03T01:52:52;-22567.50;;;4.32;100.00
5296;BME280;2670;42.720;23.336;2023-03-03T01:55:22;-22566.16;;;4.28;100.00
5296;BME280;2670;42.720;23.336;2023-03-03T01:57:56;-22565.69;;;4.26;100.00
5296;BME280;2670;42.720;23.336;2023-03-03T02:03:39;-22564.22;;;4.21;100.00
5296;BME280;2670;42.720;23.336;2023-03-03T02:13:20;-22565.41;;;4.25;100.00
5296;BME280;2670;42.720;23.336;2023-03-03T02:15:47;-22562.56;;;4.15;100.00
5296;BME280;2670;42.720;23.336;2023-03-03T02:18:15;-22566.59;;;4.29;100.00
5296;BME280;2670;42.720;23.336;2023-03-03T02:20:51;-22563.47;;;4.18;100.00
5296;BME280;2670;42.720;23.336;2023-03-03T02:23:22;-22561.53;;;4.12;100.00
5296;BME280;2670;42.720;23.336;2023-03-03T02:26:04;-22559.00;;;4.03;100.00
5296;BME280;2670;42.720;23.336;2023-03-03T02:28:33;-22561.22;;;4.11;100.00
5296;BME280;2670;42.720;23.336;2023-03-03T02:31:01;-22559.13;;;4.04;100.00
5296;BME280;2670;42.720;23.336;2023-03-03T02:33:28;-22560.34;;;4.08;100.00
5296;BME280;2670;42.720;23.336;2023-03-03T02:35:55;-22560.34;;;4.08;100.00
5296;BME280;2670;42.720;23.336;2023-03-03T02:38:26;-22560.78;;;4.09;100.00
5296;BME280;2670;42.720;23.336;2023-03-03T02:41:01;-22559.44;;;4.05;100.00
5296;BME280;2670;42.720;23.336;2023-03-03T02:43:35;-22557.50;;;3.98;100.00
5296;BME280;2670;42.720;23.336;2023-03-03T02:46:05;-22556.31;;;3.94;100.00
5296;BME280;2670;42.720;23.336;2023-03-03T02:48:32;-22556.75;;;3.95;100.00
5296;BME280;2670;42.720;23.336;2023-03-03T02:50:59;-22557.50;;;3.98;100.00
5296;BME280;2670;42.720;23.336;2023-03-03T02:53:26;-22559.28;;;4.04;100.00
5296;BME280;2670;42.720;23.336;2023-03-03T02:55:53;-22558.25;;;4.00;100.00
5296;BME280;2670;42.720;23.336;2023-03-03T02:58:21;-22560.78;;;4.09;100.00
5296;BME280;2670;42.720;23.336;2023-03-03T03:00:47;-22559.13;;;4.04;100.00
5296;BME280;2670;42.720;23.336;2023-03-03T03:03:14;-22559.00;;;4.03;100.00
5296;BME280;2670;42.720;23.336;2023-03-03T03:05:41;-22559.00;;;4.03;100.00
5296;BME280;2670;42.720;23.336;2023-03-03T03:08:08;-22562.28;;;4.14;100.00
5296;BME280;2670;42.720;23.336;2023-03-03T03:10:35;-22561.69;;;4.12;100.00
5296;BME280;2670;42.720;23.336;2023-03-03T03:13:02;-22561.81;;;4.13;100.00
5296;BME280;2670;42.720;23.336;2023-03-03T03:15:30;-22561.53;;;4.12;100.00
5296;BME280;2670;42.720;23.336;2023-03-03T03:17:57;-22560.63;;;4.09;100.00
5296;BME280;2670;42.720;23.336;2023-03-03T03:20:25;-22563.31;;;4.18;100.00
5296;BME280;2670;42.720;23.336;2023-03-03T03:22:51;-22559.44;;;4.05;100.00
5296;BME280;2670;42.720;23.336;2023-03-03T03:25:18;-22560.47;;;4.08;100.00
5296;BME280;2670;42.720;23.336;2023-03-03T03:27:45;-22561.81;;;4.13;100.00
5296;BME280;2670;42.720;23.336;2023-03-03T03:30:12;-22560.47;;;4.08;100.00
5296;BME280;2670;42.720;23.336;2023-03-03T03:32:40;-22561.22;;;4.11;100.00
5296;BME280;2670;42.720;23.336;2023-03-03T03:35:08;-22561.81;;;4.13;100.00
5296;BME280;2670;42.720;23.336;2023-03-03T03:37:35;-22561.09;;;4.10;100.00
5296;BME280;2670;42.720;23.336;2023-03-03T03:40:03;-22564.34;;;4.21;100.00
5296;BME280;2670;42.720;23.336;2023-03-03T03:42:30;-22563.91;;;4.20;100.00
5296;BME280;2670;42.720;23.336;2023-03-03T03:44:57;-22562.28;;;4.14;100.00
5296;BME280;2670;42.720;23.336;2023-03-03T03:47:24;-22561.97;;;4.13;100.00
5296;BME280;2670;42.720;23.336;2023-03-03T03:49:52;-22560.47;;;4.08;100.00
5296;BME280;2670;42.720;23.336;2023-03-03T03:52:19;-22561.97;;;4.13;100.00
5296;BME280;2670;42.720;23.336;2023-03-03T03:54:45;-22559.44;;;4.05;100.00
5296;BME280;2670;42.720;23.336;2023-03-03T03:57:12;-22559.28;;;4.04;100.00
5296;BME280;2670;42.720;23.336;2023-03-03T03:59:39;-22557.66;;;3.98;100.00
5296;BME280;2670;42.720;23.336;2023-03-03T04:02:06;-22558.69;;;4.02;100.00
5296;BME280;2670;42.720;23.336;2023-03-03T04:04:32;-22560.19;;;4.07;100.00
5296;BME280;2670;42.720;23.336;2023-03-03T04:07:01;-22560.34;;;4.08;100.00
5296;BME280;2670;42.720;23.336;2023-03-03T04:09:27;-22560.47;;;4.08;100.00
5296;BME280;2670;42.720;23.336;2023-03-03T04:11:54;-22560.47;;;4.08;100.00
5296;BME280;2670;42.720;23.336;2023-03-03T04:14:21;-22562.28;;;4.14;100.00
5296;BME280;2670;42.720;23.336;2023-03-03T04:16:48;-22560.94;;;4.10;100.00
5296;BME280;2670;42.720;23.336;2023-03-03T04:19:14;-22557.66;;;3.98;100.00
5296;BME280;2670;42.720;23.336;2023-03-03T04:21:41;-22557.50;;;3.98;100.00
5296;BME280;2670;42.720;23.336;2023-03-03T04:24:09;-22559.75;;;4.06;100.00
5296;BME280;2670;42.720;23.336;2023-03-03T04:26:36;-22561.69;;;4.12;100.00
5296;BME280;2670;42.720;23.336;2023-03-03T04:29:03;-22560.34;;;4.08;100.00
5296;BME280;2670;42.720;23.336;2023-03-03T04:31:30;-22559.28;;;4.04;100.00
5296;BME280;2670;42.720;23.336;2023-03-03T04:33:57;-22557.50;;;3.98;100.00
5296;BME280;2670;42.720;23.336;2023-03-03T04:36:24;-22557.34;;;3.97;100.00
5296;BME280;2670;42.720;23.336;2023-03-03T04:38:50;-22558.09;;;4.00;100.00
5296;BME280;2670;42.720;23.336;2023-03-03T04:41:19;-22558.09;;;4.00;100.00
5296;BME280;2670;42.720;23.336;2023-03-03T04:43:45;-22556.31;;;3.94;100.00
5296;BME280;2670;42.720;23.336;2023-03-03T04:46:12;-22557.78;;;3.99;100.00
5296;BME280;2670;42.720;23.336;2023-03-03T04:48:39;-22557.50;;;3.98;100.00
5296;BME280;2670;42.720;23.336;2023-03-03T04:51:06;-22555.25;;;3.90;100.00
5296;BME280;2670;42.720;23.336;2023-03-03T04:53:32;-22554.81;;;3.89;100.00
5296;BME280;2670;42.720;23.336;2023-03-03T04:56:08;-22557.94;;;3.99;100.00
5296;BME280;2670;42.720;23.336;2023-03-03T04:58:37;-22557.94;;;3.99;100.00
5296;BME280;2670;42.720;23.336;2023-03-03T05:01:04;-22555.72;;;3.92;100.00
5296;BME280;2670;42.720;23.336;2023-03-03T05:03:31;-22557.19;;;3.97;100.00
5296;BME280;2670;42.720;23.336;2023-03-03T05:05:58;-22557.78;;;3.99;100.00
5296;BME280;2670;42.720;23.336;2023-03-03T05:08:25;-22557.50;;;3.98;100.00
5296;BME280;2670;42.720;23.336;2023-03-03T05:10:52;-22558.84;;;4.03;100.00
5296;BME280;2670;42.720;23.336;2023-03-03T05:13:19;-22559.28;;;4.04;100.00
5296;BME280;2670;42.720;23.336;2023-03-03T05:15:50;-22559.28;;;4.04;100.00
5296;BME280;2670;42.720;23.336;2023-03-03T05:18:17;-22559.75;;;4.06;100.00
5296;BME280;2670;42.720;23.336;2023-03-03T05:20:44;-22560.47;;;4.08;100.00
5296;BME280;2670;42.720;23.336;2023-03-03T05:23:11;-22563.47;;;4.18;100.00
5296;BME280;2670;42.720;23.336;2023-03-03T05:25:39;-22562.88;;;4.16;100.00
5296;BME280;2670;42.720;23.336;2023-03-03T05:28:06;-22559.75;;;4.06;100.00
5296;BME280;2670;42.720;23.336;2023-03-03T05:30:33;-22561.69;;;4.12;100.00
5296;BME280;2670;42.720;23.336;2023-03-03T05:33:01;-22561.09;;;4.10;100.00
5296;BME280;2670;42.720;23.336;2023-03-03T05:35:28;-22560.63;;;4.09;100.00
5296;BME280;2670;42.720;23.336;2023-03-03T05:37:55;-22559.44;;;4.05;100.00
5296;BME280;2670;42.720;23.336;2023-03-03T05:40:22;-22563.00;;;4.17;100.00
5296;BME280;2670;42.720;23.336;2023-03-03T05:42:49;-22563.00;;;4.17;100.00
5296;BME280;2670;42.720;23.336;2023-03-03T05:45:17;-22564.50;;;4.22;100.00
5296;BME280;2670;42.720;23.336;2023-03-03T05:47:44;-22565.41;;;4.25;100.00
5296;BME280;2670;42.720;23.336;2023-03-03T05:50:13;-22567.50;;;4.32;100.00
5296;BME280;2670;42.720;23.336;2023-03-03T05:52:40;-22568.38;;;4.35;100.00
5296;BME280;2670;42.720;23.336;2023-03-03T05:55:07;-22565.69;;;4.26;100.00
5296;BME280;2670;42.720;23.336;2023-03-03T05:57:34;-22563.63;;;4.19;100.00
5296;BME280;2670;42.720;23.336;2023-03-03T06:00:01;-22563.47;;;4.18;100.00
5296;BME280;2670;42.720;23.336;2023-03-03T06:02:28;-22566.44;;;4.29;100.00
5296;BME280;2670;42.720;23.336;2023-03-03T06:04:55;-22567.63;;;4.33;100.00
5296;BME280;2670;42.720;23.336;2023-03-03T06:07:23;-22568.84;;;4.37;100.00
5296;BME280;2670;42.720;23.336;2023-03-03T06:09:50;-22567.34;;;4.32;100.00
5296;BME280;2670;42.720;23.336;2023-03-03T06:12:17;-22569.28;;;4.38;100.00
5296;BME280;2670;42.720;23.336;2023-03-03T06:14:43;-22571.53;;;4.46;100.00
5296;BME280;2670;42.720;23.336;2023-03-03T06:17:10;-22569.72;;;4.40;100.00
5296;BME280;2670;42.720;23.336;2023-03-03T06:19:37;-22573.59;;;4.53;100.00
5296;BME280;2670;42.720;23.336;2023-03-03T06:22:05;-22575.53;;;4.60;100.00
5296;BME280;2670;42.720;23.336;2023-03-03T06:24:34;-22573.75;;;4.54;100.00
5296;BME280;2670;42.720;23.336;2023-03-03T06:27:01;-22574.19;;;4.55;100.00
5296;BME280;2670;42.720;23.336;2023-03-03T06:29:27;-22574.50;;;4.56;100.00
5296;BME280;2670;42.720;23.336;2023-03-03T06:31:54;-22572.25;;;4.48;100.00
5296;BME280;2670;42.720;23.336;2023-03-03T06:34:21;-22570.94;;;4.44;100.00
5296;BME280;2670;42.720;23.336;2023-03-03T06:36:48;-22572.84;;;4.50;100.00
5296;BME280;2670;42.720;23.336;2023-03-03T06:39:15;-22574.34;;;4.56;100.00
5296;BME280;2670;42.720;23.336;2023-03-03T06:41:43;-22576.28;;;4.62;100.00
5296;BME280;2670;42.720;23.336;2023-03-03T06:44:12;-22573.91;;;4.54;100.00
5296;BME280;2670;42.720;23.336;2023-03-03T06:46:38;-22573.47;;;4.53;100.00
5296;BME280;2670;42.720;23.336;2023-03-03T06:49:05;-22575.69;;;4.60;100.00
5296;BME280;2670;42.720;23.336;2023-03-03T06:51:33;-22572.41;;;4.49;100.00
5296;BME280;2670;42.720;23.336;2023-03-03T06:54:04;-22573.31;;;4.52;100.00
5296;BME280;2670;42.720;23.336;2023-03-03T06:56:35;-22572.41;;;4.49;100.00
5296;BME280;2670;42.720;23.336;2023-03-03T06:59:11;-22575.69;;;4.60;100.00
5296;BME280;2670;42.720;23.336;2023-03-03T07:01:39;-22576.13;;;4.62;100.00
5296;BME280;2670;42.720;23.336;2023-03-03T07:04:15;-22574.34;;;4.56;100.00
5296;BME280;2670;42.720;23.336;2023-03-03T07:06:42;-22575.41;;;4.59;100.00
5296;BME280;2670;42.720;23.336;2023-03-03T07:09:16;-22576.44;;;4.63;100.00
5296;BME280;2670;42.720;23.336;2023-03-03T07:11:45;-22576.00;;;4.61;100.00
5296;BME280;2670;42.720;23.336;2023-03-03T07:14:15;-22570.31;;;4.42;100.00
5296;BME280;2670;42.720;23.336;2023-03-03T07:16:43;-22575.41;;;4.59;100.00
5296;BME280;2670;42.720;23.336;2023-03-03T07:19:16;-22574.94;;;4.58;100.00
5296;BME280;2670;42.720;23.336;2023-03-03T07:21:45;-22577.63;;;4.67;100.00
5296;BME280;2670;42.720;23.336;2023-03-03T07:24:21;-22577.47;;;4.66;100.00
5296;BME280;2670;42.720;23.336;2023-03-03T07:26:50;-22578.09;;;4.68;100.00
5296;BME280;2670;42.720;23.336;2023-03-03T07:29:23;-22577.94;;;4.68;100.00
5296;BME280;2670;42.720;23.336;2023-03-03T07:31:51;-22577.78;;;4.67;100.00
5296;BME280;2670;42.720;23.336;2023-03-03T07:34:36;-22580.31;;;4.76;100.00
5296;BME280;2670;42.720;23.336;2023-03-03T07:37:12;-22580.16;;;4.75;100.00
5296;BME280;2670;42.720;23.336;2023-03-03T07:39:44;-22579.56;;;4.73;100.00
5296;BME280;2670;42.720;23.336;2023-03-03T07:42:21;-22580.75;;;4.78;100.00
5296;BME280;2670;42.720;23.336;2023-03-03T07:44:58;-22582.25;;;4.83;100.00
5296;BME280;2670;42.720;23.336;2023-03-03T07:47:27;-22579.72;;;4.74;100.00
5296;BME280;2670;42.720;23.336;2023-03-03T07:49:55;-22581.22;;;4.79;100.00
5296;BME280;2670;42.720;23.336;2023-03-03T07:52:26;-22587.03;;;4.99;100.00
5296;BME280;2670;42.720;23.336;2023-03-03T07:54:54;-22585.84;;;4.95;100.00
5296;BME280;2670;42.720;23.336;2023-03-03T07:57:24;-22587.91;;;5.02;100.00
5296;BME280;2670;42.720;23.336;2023-03-03T07:59:53;-22586.72;;;4.98;100.00
5296;BME280;2670;42.720;23.336;2023-03-03T08:02:44;-22589.41;;;5.07;100.00
5296;BME280;2670;42.720;23.336;2023-03-03T08:05:27;-22588.97;;;5.06;100.00
5296;BME280;2670;42.720;23.336;2023-03-03T08:07:57;-22587.03;;;4.99;100.00
5296;BME280;2670;42.720;23.336;2023-03-03T08:10:35;-22585.38;;;4.93;100.00
5296;BME280;2670;42.720;23.336;2023-03-03T08:13:14;-22586.72;;;4.98;100.00
5296;BME280;2670;42.720;23.336;2023-03-03T08:16:03;-22587.63;;;5.01;100.00
5296;BME280;2670;42.720;23.336;2023-03-03T08:18:46;-22589.84;;;5.09;100.00
5296;BME280;2670;42.720;23.336;2023-03-03T08:21:14;-22591.50;;;5.14;100.00
5296;BME280;2670;42.720;23.336;2023-03-03T08:23:41;-22592.25;;;5.17;100.00
5296;BME280;2670;42.720;23.336;2023-03-03T08:26:09;-22591.50;;;5.14;100.00
5296;BME280;2670;42.720;23.336;2023-03-03T08:28:37;-22592.69;;;5.18;100.00
5296;BME280;2670;42.720;23.336;2023-03-03T08:31:04;-22592.97;;;5.19;100.00
5296;BME280;2670;42.720;23.336;2023-03-03T08:33:31;-22592.97;;;5.19;100.00
5296;BME280;2670;42.720;23.336;2023-03-03T08:35:59;-22595.50;;;5.28;100.00
5296;BME280;2670;42.720;23.336;2023-03-03T08:38:26;-22594.63;;;5.25;100.00
5296;BME280;2670;42.720;23.336;2023-03-03T08:40:53;-22594.19;;;5.23;100.00
5296;BME280;2670;42.720;23.336;2023-03-03T08:43:20;-22592.25;;;5.17;100.00
5296;BME280;2670;42.720;23.336;2023-03-03T08:48:57;-22594.47;;;5.24;100.00
5296;BME280;2670;42.720;23.336;2023-03-03T08:51:25;-22593.28;;;5.20;100.00
5296;BME280;2670;42.720;23.336;2023-03-03T08:53:52;-22595.50;;;5.28;100.00
5296;BME280;2670;42.720;23.336;2023-03-03T08:56:18;-22599.69;;;5.42;100.00
5296;BME280;2670;42.720;23.336;2023-03-03T08:58:45;-22599.25;;;5.41;100.00
5296;BME280;2670;42.720;23.336;2023-03-03T09:01:13;-22600.00;;;5.43;100.00
5296;BME280;2670;42.720;23.336;2023-03-03T09:03:41;-22600.72;;;5.46;100.00
5296;BME280;2670;42.720;23.336;2023-03-03T09:06:08;-22601.03;;;5.47;100.00
5296;BME280;2670;42.720;23.336;2023-03-03T09:08:37;-22603.72;;;5.56;100.00
5296;BME280;2670;42.720;23.336;2023-03-03T09:11:09;-22607.13;;;5.68;100.00
5296;BME280;2670;42.720;23.336;2023-03-03T09:13:36;-22606.38;;;5.65;100.00
5296;BME280;2670;42.720;23.336;2023-03-03T09:16:09;-22606.38;;;5.65;100.00
5296;BME280;2670;42.720;23.336;2023-03-03T09:18:38;-22607.59;;;5.69;100.00
5296;BME280;2670;42.720;23.336;2023-03-03T09:21:18;-22607.44;;;5.69;100.00
5296;BME280;2670;42.720;23.336;2023-03-03T09:23:52;-22613.84;;;5.91;100.00
5296;BME280;2670;42.720;23.336;2023-03-03T09:26:30;-22614.44;;;5.93;100.00
5296;BME280;2670;42.720;23.336;2023-03-03T09:29:10;-22618.16;;;6.06;100.00
5296;BME280;2670;42.720;23.336;2023-03-03T09:31:43;-22615.19;;;5.95;100.00
5296;BME280;2670;42.720;23.336;2023-03-03T09:34:48;-22616.06;;;5.98;100.00
5296;BME280;2670;42.720;23.336;2023-03-03T09:37:20;-22614.28;;;5.92;100.00
5296;BME280;2670;42.720;23.336;2023-03-03T09:39:50;-22616.06;;;5.98;100.00
5296;BME280;2670;42.720;23.336;2023-03-03T09:42:44;-22616.97;;;6.02;100.00
5296;BME280;2670;42.720;23.336;2023-03-03T09:45:25;-22617.72;;;6.04;100.00
5296;BME280;2670;42.720;23.336;2023-03-03T09:48:22;-22624.25;;;6.27;100.00
5296;BME280;2670;42.720;23.336;2023-03-03T09:51:05;-22622.63;;;6.21;100.00
5296;BME280;2670;42.720;23.336;2023-03-03T09:53:48;-22620.38;;;6.13;100.00
5296;BME280;2670;42.720;23.336;2023-03-03T09:56:24;-22623.53;;;6.24;100.00
5296;BME280;2670;42.720;23.336;2023-03-03T09:59:06;-22626.50;;;6.34;100.00
5296;BME280;2670;42.720;23.336;2023-03-03T10:01:52;-22627.53;;;6.38;100.00
5296;BME280;2670;42.720;23.336;2023-03-03T10:04:59;-22628.44;;;6.41;100.00
5296;BME280;2670;42.720;23.336;2023-03-03T10:07:37;-22630.34;;;6.47;100.00
5296;BME280;2670;42.720;23.336;2023-03-03T10:10:20;-22634.22;;;6.61;100.00
5296;BME280;2670;42.720;23.336;2023-03-03T10:13:00;-22634.97;;;6.63;100.00
5296;BME280;2670;42.720;23.336;2023-03-03T10:15:39;-22635.88;;;6.66;100.00
5296;BME280;2670;42.720;23.336;2023-03-03T10:18:21;-22630.34;;;6.47;100.00
5296;BME280;2670;42.720;23.336;2023-03-03T10:21:03;-22633.34;;;6.58;100.00
5296;BME280;2670;42.720;23.336;2023-03-03T10:23:51;-22633.94;;;6.60;100.00
5296;BME280;2670;42.720;23.336;2023-03-03T10:26:29;-22634.97;;;6.63;100.00
5296;BME280;2670;42.720;23.336;2023-03-03T10:29:23;-22634.22;;;6.61;100.00
5296;BME280;2670;42.720;23.336;2023-03-03T10:32:04;-22634.97;;;6.63;100.00
5296;BME280;2670;42.720;23.336;2023-03-03T10:34:49;-22635.13;;;6.64;100.00
5296;BME280;2670;42.720;23.336;2023-03-03T10:37:27;-22632.44;;;6.55;100.00
5296;BME280;2670;42.720;23.336;2023-03-03T10:40:16;-22630.81;;;6.49;100.00
5296;BME280;2670;42.720;23.336;2023-03-03T10:43:00;-22627.84;;;6.39;100.00
5296;BME280;2670;42.720;23.336;2023-03-03T10:45:43;-22628.44;;;6.41;100.00
5296;BME280;2670;42.720;23.336;2023-03-03T10:48:31;-22627.53;;;6.38;100.00
5296;BME280;2670;42.720;23.336;2023-03-03T10:51:07;-22629.47;;;6.44;100.00
5296;BME280;2670;42.720;23.336;2023-03-03T10:53:49;-22626.94;;;6.36;100.00
5296;BME280;2670;42.720;23.336;2023-03-03T10:56:33;-22625.91;;;6.32;100.00
5296;BME280;2670;42.720;23.336;2023-03-03T10:59:11;-22625.44;;;6.31;100.00
5296;BME280;2670;42.720;23.336;2023-03-03T11:01:48;-22628.88;;;6.42;100.00
5296;BME280;2670;42.720;23.336;2023-03-03T11:07:22;-22626.63;;;6.35;100.00
5296;BME280;2670;42.720;23.336;2023-03-03T11:10:02;-22626.63;;;6.35;100.00
5296;BME280;2670;42.720;23.336;2023-03-03T11:12:42;-22625.00;;;6.29;100.00
5296;BME280;2670;42.720;23.336;2023-03-03T11:15:28;-22629.16;;;6.43;100.00
5296;BME280;2670;42.720;23.336;2023-03-03T11:18:14;-22629.31;;;6.44;100.00
5296;BME280;2670;42.720;23.336;2023-03-03T11:20:51;-22631.69;;;6.52;100.00
5296;BME280;2670;42.720;23.336;2023-03-03T11:23:43;-22632.88;;;6.56;100.00
5296;BME280;2670;42.720;23.336;2023-03-03T11:26:23;-22634.81;;;6.63;100.00
5296;BME280;2670;42.720;23.336;2023-03-03T11:29:12;-22632.75;;;6.56;100.00
5296;BME280;2670;42.720;23.336;2023-03-03T11:31:46;-22629.91;;;6.46;100.00
5296;BME280;2670;42.720;23.336;2023-03-03T11:34:24;-22633.34;;;6.58;100.00
5296;BME280;2670;42.720;23.336;2023-03-03T11:37:01;-22632.44;;;6.55;100.00
5296;BME280;2670;42.720;23.336;2023-03-03T11:39:29;-22630.81;;;6.49;100.00
5296;BME280;2670;42.720;23.336;2023-03-03T11:42:02;-22634.53;;;6.62;100.00
5296;BME280;2670;42.720;23.336;2023-03-03T11:44:33;-22634.38;;;6.61;100.00
5296;BME280;2670;42.720;23.336;2023-03-03T11:47:03;-22630.66;;;6.48;100.00
5296;BME280;2670;42.720;23.336;2023-03-03T11:49:37;-22632.44;;;6.55;100.00
5296;BME280;2670;42.720;23.336;2023-03-03T11:52:18;-22635.41;;;6.65;100.00
5296;BME280;2670;42.720;23.336;2023-03-03T11:54:51;-22634.22;;;6.61;100.00
5296;BME280;2670;42.720;23.336;2023-03-03T11:57:22;-22630.50;;;6.48;100.00
5296;BME280;2670;42.720;23.336;2023-03-03T12:00:04;-22628.28;;;6.40;100.00
5296;BME280;2670;42.720;23.336;2023-03-03T12:03:16;-22633.34;;;6.58;100.00
5296;BME280;2670;42.720;23.336;2023-03-03T12:05:53;-22629.47;;;6.44;100.00
5296;BME280;2670;42.720;23.336;2023-03-03T12:08:28;-22626.50;;;6.34;100.00
5296;BME280;2670;42.720;23.336;2023-03-03T12:11:02;-22628.44;;;6.41;100.00
5296;BME280;2670;42.720;23.336;2023-03-03T12:13:39;-22628.72;;;6.42;100.00
5296;BME280;2670;42.720;23.336;2023-03-03T12:16:15;-22627.09;;;6.36;100.00
5296;BME280;2670;42.720;23.336;2023-03-03T12:18:58;-22623.97;;;6.26;100.00
5296;BME280;2670;42.720;23.336;2023-03-03T12:21:49;-22623.06;;;6.22;100.00
5296;BME280;2670;42.720;23.336;2023-03-03T12:24:30;-22621.88;;;6.18;100.00
5296;BME280;2670;42.720;23.336;2023-03-03T12:27:12;-22620.25;;;6.13;100.00
5296;BME280;2670;42.720;23.336;2023-03-03T12:29:41;-22621.59;;;6.17;100.00
5296;BME280;2670;42.720;23.336;2023-03-03T12:32:22;-22618.91;;;6.08;100.00
5296;BME280;2670;42.720;23.336;2023-03-03T12:34:57;-22616.97;;;6.02;100.00
5296;BME280;2670;42.720;23.336;2023-03-03T12:37:49;-22617.13;;;6.02;100.00
5296;BME280;2670;42.720;23.336;2023-03-03T12:40:24;-22617.84;;;6.05;100.00
5296;BME280;2670;42.720;23.336;2023-03-03T12:43:01;-22616.22;;;5.99;100.00
5296;BME280;2670;42.720;23.336;2023-03-03T12:45:39;-22617.72;;;6.04;100.00
5296;BME280;2670;42.720;23.336;2023-03-03T12:48:15;-22616.81;;;6.01;100.00
5296;BME280;2670;42.720;23.336;2023-03-03T12:50:50;-22614.72;;;5.94;100.00
5296;BME280;2670;42.720;23.336;2023-03-03T12:53:38;-22612.78;;;5.87;100.00
5296;BME280;2670;42.720;23.336;2023-03-03T12:56:11;-22614.13;;;5.92;100.00
5296;BME280;2670;42.720;23.336;2023-03-03T12:58:45;-22611.31;;;5.82;100.00
5296;BME280;2670;42.720;23.336;2023-03-03T13:01:24;-22612.94;;;5.88;100.00
5296;BME280;2670;42.720;23.336;2023-03-03T13:04:03;-22608.91;;;5.74;100.00
5296;BME280;2670;42.720;23.336;2023-03-03T13:06:39;-22607.13;;;5.68;100.00
5296;BME280;2670;42.720;23.336;2023-03-03T13:09:19;-22607.44;;;5.69;100.00
5296;BME280;2670;42.720;23.336;2023-03-03T13:11:58;-22607.13;;;5.68;100.00
5296;BME280;2670;42.720;23.336;2023-03-03T13:14:36;-22604.59;;;5.59;100.00
5296;BME280;2670;42.720;23.336;2023-03-03T13:17:16;-22604.00;;;5.57;100.00
5296;BME280;2670;42.720;23.336;2023-03-03T13:19:50;-22604.44;;;5.59;100.00
5296;BME280;2670;42.720;23.336;2023-03-03T13:22:28;-22603.72;;;5.56;100.00
5296;BME280;2670;42.720;23.336;2023-03-03T13:25:02;-22600.72;;;5.46;100.00
5296;BME280;2670;42.720;23.336;2023-03-03T13:27:36;-22602.66;;;5.53;100.00
5296;BME280;2670;42.720;23.336;2023-03-03T13:30:14;-22603.72;;;5.56;100.00
5296;BME280;2670;42.720;23.336;2023-03-03T13:32:45;-22604.59;;;5.59;100.00
5296;BME280;2670;42.720;23.336;2023-03-03T13:35:23;-22603.41;;;5.55;100.00
5296;BME280;2670;42.720;23.336;2023-03-03T13:37:54;-22605.50;;;5.62;100.00
5296;BME280;2670;42.720;23.336;2023-03-03T13:40:26;-22610.25;;;5.79;100.00
5296;BME280;2670;42.720;23.336;2023-03-03T13:42:58;-22611.44;;;5.83;100.00
5296;BME280;2670;42.720;23.336;2023-03-03T13:45:33;-22613.38;;;5.89;100.00
5296;BME280;2670;42.720;23.336;2023-03-03T13:48:12;-22615.78;;;5.97;100.00